Time;durP1;ratioP1;P1;durP2;ratioP2;P2;SDS_P1;SDS_P2;PMS_P1;PMS_P2;Temp;Humidity;BMP_temperature;BMP_pressure;BME280_temperature;BME280_humidity;BME280_pressure;Samples;Min_cycle;Max_cycle;Signal;HPM_P1;HPM_P2
2022/09/17 00:03:42;;;;;;;5.97;1.35;;;;;;;11.30;100.00;100288.22;8361376;28;20124;-49
2022/09/17 00:07:42;;;;;;;7.65;1.23;;;;;;;11.28;100.00;100282.94;8361048;28;20057;-50
2022/09/17 00:11:43;;;;;;;8.15;1.08;;;;;;;11.26;100.00;100287.66;8360916;28;20040;-50
2022/09/17 00:15:45;;;;;;;4.88;1.30;;;;;;;11.31;100.00;100285.34;8360431;28;20064;-50
2022/09/17 00:19:45;;;;;;;6.63;1.02;;;;;;;11.38;100.00;100286.44;8361347;28;20033;-49
2022/09/17 00:23:46;;;;;;;7.32;2.08;;;;;;;11.46;100.00;100288.38;8360524;28;20044;-49
2022/09/17 00:27:46;;;;;;;15.50;1.73;;;;;;;11.49;100.00;100285.38;8358131;28;20564;-49
2022/09/17 00:31:46;;;;;;;10.05;1.58;;;;;;;11.54;100.00;100294.78;8326473;28;20045;-50
2022/09/17 00:35:58;;;;;;;11.02;2.05;;;;;;;11.49;100.00;100290.78;8326819;28;20151;-49
2022/09/17 00:39:58;;;;;;;9.27;1.48;;;;;;;11.46;100.00;100289.25;8340495;28;20043;-49
2022/09/17 00:44:39;;;;;;;8.98;1.95;;;;;;;11.45;100.00;100287.56;8360035;28;20036;-50
2022/09/17 00:48:39;;;;;;;5.82;1.67;;;;;;;11.48;100.00;100295.38;8358915;28;20043;-50
2022/09/17 00:52:45;;;;;;;11.07;1.70;;;;;;;11.50;100.00;100296.06;8359800;28;22310;-49
2022/09/17 00:56:47;;;;;;;6.68;2.20;;;;;;;11.52;100.00;100294.06;8358564;28;20090;-49
2022/09/17 01:00:47;;;;;;;13.73;1.75;;;;;;;11.53;100.00;100294.91;8359008;28;20056;-51
2022/09/17 01:04:48;;;;;;;13.20;1.65;;;;;;;11.48;100.00;100292.66;8359754;28;20040;-51
2022/09/17 01:09:18;;;;;;;6.30;1.90;;;;;;;11.43;100.00;100289.56;8359031;28;20033;-49
2022/09/17 01:13:46;;;;;;;9.13;2.05;;;;;;;11.43;100.00;100289.56;8358126;28;20029;-50
2022/09/17 01:22:21;;;;;;;9.18;1.80;;;;;;;11.42;100.00;100289.72;8295186;28;20477;-48
2022/09/17 01:27:01;;;;;;;13.18;1.42;;;;;;;11.49;100.00;100304.34;8287174;28;20526;-48
2022/09/17 01:31:24;;;;;;;12.70;1.80;;;;;;;11.50;100.00;100296.06;8287077;28;20034;-49
2022/09/17 01:35:42;;;;;;;6.45;1.48;;;;;;;11.55;100.00;100292.91;8278608;28;20124;-49
2022/09/17 01:39:59;;;;;;;11.00;2.10;;;;;;;11.55;100.00;100299.16;8286995;28;20061;-49
2022/09/17 01:44:10;;;;;;;9.02;1.70;;;;;;;11.60;100.00;100310.41;8287557;28;20053;-48
2022/09/17 01:48:19;;;;;;;11.55;2.72;;;;;;;11.66;100.00;100312.53;8286147;28;20057;-48
2022/09/17 01:52:22;;;;;;;8.90;1.90;;;;;;;11.72;100.00;100320.03;8287007;28;20061;-48
2022/09/17 01:56:27;;;;;;;8.43;1.40;;;;;;;11.78;100.00;100319.41;8286068;28;20034;-48
2022/09/17 02:00:27;;;;;;;;;;;;;;;11.74;100.00;100325.28;8286482;28;20049;-49
2022/09/17 02:04:34;;;;;;;12.60;1.95;;;;;;;11.67;100.00;100325.06;8286711;28;19921;-48
2022/09/17 02:08:50;;;;;;;14.30;2.00;;;;;;;11.68;100.00;100324.06;8286619;28;20034;-52
2022/09/17 02:12:59;;;;;;;12.65;2.28;;;;;;;11.63;100.00;100329.09;8285999;28;20046;-48
2022/09/17 02:17:07;;;;;;;10.45;1.58;;;;;;;11.59;100.00;100333.06;8284262;28;20045;-49
2022/09/17 02:21:15;;;;;;;8.50;1.33;;;;;;;11.58;100.00;100336.78;8286197;28;20125;-49
2022/09/17 02:25:24;;;;;;;10.52;2.00;;;;;;;11.54;100.00;100346.22;8284568;28;20038;-51
2022/09/17 02:29:32;;;;;;;8.43;1.40;;;;;;;11.60;100.00;100340.19;8285289;28;20430;-51
2022/09/17 02:33:35;;;;;;;8.18;1.45;;;;;;;11.63;100.00;100339.94;8257792;28;20117;-48
2022/09/17 02:37:35;;;;;;;9.55;1.67;;;;;;;11.58;100.00;100342.19;8263654;28;20039;-49
2022/09/17 02:42:03;;;;;;;10.10;1.83;;;;;;;11.51;100.00;100341.09;8263650;28;20500;-49
2022/09/17 02:46:18;;;;;;;11.55;1.80;;;;;;;11.57;100.00;100335.06;8262599;28;20504;-52
2022/09/17 02:50:38;;;;;;;;;;;;;;;11.67;100.00;100340.44;8264192;28;20035;-49
2022/09/17 02:54:53;;;;;;;9.52;1.77;;;;;;;11.70;100.00;100341.00;8263499;28;20001;-49
2022/09/17 02:59:06;;;;;;;14.43;2.22;;;;;;;11.75;100.00;100343.25;8263378;28;20085;-47
2022/09/17 03:03:12;;;;;;;13.27;1.83;;;;;;;11.81;100.00;100338.06;8263472;28;20035;-46
2022/09/17 03:07:13;;;;;;;13.43;1.95;;;;;;;11.80;100.00;100347.22;8263448;28;20037;-47
2022/09/17 03:11:14;;;;;;;18.48;2.47;;;;;;;11.83;100.00;100351.47;8263299;28;20054;-46
2022/09/17 03:15:14;;;;;;;9.48;1.50;;;;;;;11.89;100.00;100348.13;8262636;28;20044;-46
2022/09/17 03:19:15;;;;;;;12.25;2.40;;;;;;;11.95;100.00;100349.41;8259932;28;20046;-46
2022/09/17 03:23:15;;;;;;;10.95;1.80;;;;;;;11.95;100.00;100347.53;8260492;28;20109;-46
2022/09/17 03:27:15;;;;;;;8.35;1.27;;;;;;;12.02;100.00;100345.06;8260697;28;20031;-47
2022/09/17 03:31:16;;;;;;;7.97;1.42;;;;;;;12.02;100.00;100355.91;8261234;28;20037;-46
2022/09/17 03:35:16;;;;;;;9.07;1.48;;;;;;;11.97;100.00;100352.78;8261142;28;20045;-47
2022/09/17 03:39:17;;;;;;;13.18;1.27;;;;;;;12.00;100.00;100363.31;8260609;28;20471;-47
2022/09/17 03:43:17;;;;;;;15.32;1.92;;;;;;;11.93;100.00;100358.53;8260532;28;20038;-47
2022/09/17 03:47:17;;;;;;;11.77;1.63;;;;;;;11.78;100.00;100349.22;8260771;28;20092;-46
2022/09/17 03:51:18;;;;;;;12.55;1.40;;;;;;;11.78;100.00;100357.34;8261585;28;20559;-47
2022/09/17 03:55:19;;;;;;;9.50;1.42;;;;;;;11.84;100.00;100364.84;8261597;28;20049;-46
2022/09/17 03:59:20;;;;;;;8.95;1.65;;;;;;;11.92;100.00;100365.97;8260967;28;20046;-50
2022/09/17 04:03:20;;;;;;;8.50;1.40;;;;;;;11.90;100.00;100358.81;8261596;28;20054;-49
2022/09/17 04:07:20;;;;;;;9.23;1.95;;;;;;;11.86;100.00;100367.41;8261045;28;20486;-49
2022/09/17 04:11:21;;;;;;;13.38;1.80;;;;;;;11.78;100.00;100370.03;8259650;28;20041;-45
2022/09/17 04:15:22;;;;;;;10.15;1.80;;;;;;;11.73;100.00;100373.22;8261117;28;20065;-46
2022/09/17 04:19:22;;;;;;;13.87;1.83;;;;;;;11.62;100.00;100370.69;8260970;28;20523;-46
2022/09/17 04:23:23;;;;;;;9.95;1.50;;;;;;;11.55;100.00;100374.97;8260391;28;20308;-46
2022/09/17 04:27:23;;;;;;;11.70;2.03;;;;;;;11.45;100.00;100368.78;8259148;28;20550;-46
2022/09/17 04:31:25;;;;;;;9.60;1.42;;;;;;;11.46;100.00;100375.00;8259151;28;20041;-46
2022/09/17 04:35:26;;;;;;;11.63;1.52;;;;;;;11.39;100.00;100379.31;8259062;28;20038;-46
2022/09/17 04:39:26;;;;;;;17.08;2.00;;;;;;;11.33;100.00;100388.91;8258717;28;20034;-46
2022/09/17 04:43:27;;;;;;;15.13;1.73;;;;;;;11.40;100.00;100387.31;8259187;28;20120;-46
2022/09/17 04:47:27;;;;;;;7.05;1.50;;;;;;;11.53;100.00;100379.69;8259430;28;20035;-46
2022/09/17 04:51:28;;;;;;;8.80;1.30;;;;;;;11.60;100.00;100380.81;8259930;28;20516;-47
2022/09/17 04:55:30;;;;;;;12.75;1.73;;;;;;;11.59;100.00;100392.63;8258577;28;20112;-46
2022/09/17 04:59:30;;;;;;;15.30;2.10;;;;;;;11.57;100.00;100383.81;8259830;28;20034;-46
2022/09/17 05:03:30;;;;;;;9.25;1.58;;;;;;;11.59;100.00;100398.03;8260181;28;20538;-47
2022/09/17 05:07:31;;;;;;;6.95;1.25;;;;;;;11.69;100.00;100396.16;8259596;28;20039;-49
2022/09/17 05:11:32;;;;;;;12.20;1.50;;;;;;;11.73;100.00;100392.16;8259658;28;20034;-46
2022/09/17 05:15:32;;;;;;;12.63;2.10;;;;;;;11.72;100.00;100398.56;8257524;28;20042;-47
2022/09/17 05:19:32;;;;;;;10.35;0.98;;;;;;;11.71;100.00;100401.41;8259977;28;20034;-46
2022/09/17 05:23:33;;;;;;;8.20;1.17;;;;;;;11.72;100.00;100398.56;8258076;28;20046;-46
2022/09/17 05:27:33;;;;;;;9.05;1.60;;;;;;;11.66;100.00;100393.78;8255838;28;20100;-48
2022/09/17 05:31:34;;;;;;;13.60;1.63;;;;;;;11.63;100.00;100399.50;8258026;28;20121;-47
2022/09/17 05:35:35;;;;;;;13.38;2.25;;;;;;;11.67;100.00;100398.19;8259744;28;20407;-47
2022/09/17 05:39:36;;;;;;;15.55;2.10;;;;;;;11.73;100.00;100405.72;8253483;28;20038;-46
2022/09/17 05:43:36;;;;;;;9.20;1.05;;;;;;;11.84;100.00;100405.47;8253607;28;20054;-48
2022/09/17 05:47:36;;;;;;;9.52;1.40;;;;;;;12.05;100.00;100412.50;8257598;28;20035;-46
2022/09/17 05:51:37;;;;;;;13.30;1.38;;;;;;;12.30;100.00;100411.75;8255788;28;20125;-47
2022/09/17 05:55:38;;;;;;;11.60;1.30;;;;;;;12.48;100.00;100418.03;8258355;28;20086;-48
2022/09/17 05:59:38;;;;;;;10.25;1.42;;;;;;;12.47;100.00;100432.59;8256675;28;20101;-49
2022/09/17 06:03:39;;;;;;;7.47;1.00;;;;;;;12.50;100.00;100433.13;8258881;28;20038;-46
2022/09/17 06:07:39;;;;;;;9.00;1.33;;;;;;;12.66;100.00;100443.28;8262255;28;20321;-47
2022/09/17 06:11:39;;;;;;;12.57;1.30;;;;;;;12.77;100.00;100435.75;8264371;28;20359;-48
2022/09/17 06:15:40;;;;;;;11.13;1.92;;;;;;;12.73;100.00;100433.50;8263069;28;20478;-49
2022/09/17 06:19:40;;;;;;;8.37;1.13;;;;;;;12.71;100.00;100430.09;8263501;28;20045;-48
2022/09/17 06:23:42;;;;;;;10.48;1.30;;;;;;;12.71;100.00;100430.09;8264956;28;20266;-46
2022/09/17 06:27:42;;;;;;;9.40;1.40;;;;;;;12.75;99.86;100431.50;8261858;28;20038;-46
2022/09/17 06:31:43;;;;;;;5.30;1.50;;;;;;;12.82;97.51;100438.00;8253090;28;20038;-46
2022/09/17 06:35:44;;;;;;;10.30;1.38;;;;;;;12.90;96.84;100438.09;8256601;28;20384;-46
2022/09/17 06:39:44;;;;;;;8.23;1.23;;;;;;;12.97;98.32;100437.28;8251981;28;20042;-46
2022/09/17 06:43:45;;;;;;;9.57;1.55;;;;;;;12.90;99.56;100451.66;8258920;28;20515;-47
2022/09/17 06:47:45;;;;;;;9.15;1.52;;;;;;;12.72;100.00;100453.53;8263403;28;20092;-48
2022/09/17 06:51:45;;;;;;;9.85;1.08;;;;;;;12.55;100.00;100457.06;8263461;28;20086;-46
2022/09/17 06:55:46;;;;;;;8.80;1.17;;;;;;;12.52;100.00;100462.81;8261624;28;20483;-46
2022/09/17 06:59:46;;;;;;;14.60;1.63;;;;;;;12.58;100.00;100467.59;8258133;28;20092;-47
2022/09/17 07:03:48;;;;;;;10.68;1.33;;;;;;;12.74;100.00;100473.19;8262326;28;20042;-46
2022/09/17 07:07:49;;;;;;;11.27;1.50;;;;;;;12.82;100.00;100470.56;8253979;28;20041;-47
2022/09/17 07:11:49;;;;;;;10.65;1.48;;;;;;;12.73;100.00;100466.06;8260439;28;20031;-46
2022/09/17 07:15:54;;;;;;;7.28;1.23;;;;;;;12.79;100.00;100460.03;8246805;28;20693;-46
2022/09/17 07:19:54;;;;;;;17.33;1.98;;;;;;;12.84;100.00;100463.13;8259090;28;20089;-47
2022/09/17 07:23:54;;;;;;;12.18;1.65;;;;;;;12.90;100.00;100463.34;8261674;28;20097;-49
2022/09/17 07:27:55;;;;;;;12.48;1.13;;;;;;;12.98;100.00;100470.69;8257288;28;20038;-46
2022/09/17 07:31:57;;;;;;;7.57;1.48;;;;;;;13.12;97.28;100468.28;8261294;28;20104;-46
2022/09/17 07:36:00;;;;;;;9.75;1.65;;;;;;;13.32;95.65;100469.81;8257579;28;20038;-46
2022/09/17 07:40:01;;;;;;;7.35;1.10;;;;;;;13.56;93.47;100460.97;8255816;28;20050;-47
2022/09/17 07:44:01;;;;;;;8.27;1.10;;;;;;;13.81;92.98;100465.50;8252691;28;20058;-47
2022/09/17 07:48:02;;;;;;;3.80;0.80;;;;;;;14.51;91.21;100464.25;8257488;28;20042;-47
2022/09/17 07:52:05;;;;;;;12.75;1.27;;;;;;;14.60;89.43;100461.38;8256342;28;20112;-49
2022/09/17 07:56:07;;;;;;;11.77;1.17;;;;;;;14.64;88.27;100470.91;8257086;28;20038;-47
2022/09/17 08:00:08;;;;;;;7.68;1.08;;;;;;;14.51;88.72;100470.53;8254653;28;20046;-48
2022/09/17 08:04:08;;;;;;;9.50;1.17;;;;;;;14.51;88.86;100481.44;8255768;28;20030;-48
2022/09/17 08:08:09;;;;;;;9.40;1.15;;;;;;;14.65;88.87;100483.50;8254720;28;20359;-47
2022/09/17 08:12:09;;;;;;;8.32;1.55;;;;;;;14.89;85.74;100483.56;8258690;28;20050;-48
2022/09/17 08:16:12;;;;;;;10.40;1.52;;;;;;;14.85;86.30;100490.31;8257060;28;20039;-48
2022/09/17 08:20:14;;;;;;;10.55;1.20;;;;;;;14.95;86.15;100474.66;8258254;28;20050;-47
2022/09/17 08:24:14;;;;;;;8.02;1.45;;;;;;;15.16;84.42;100477.75;8248258;28;20077;-50
2022/09/17 08:28:15;;;;;;;9.98;1.23;;;;;;;15.16;84.43;100483.19;8257559;28;20504;-47
2022/09/17 08:32:15;;;;;;;9.80;1.30;;;;;;;15.64;83.11;100472.25;8253942;28;20358;-47
2022/09/17 08:36:18;;;;;;;10.57;1.25;;;;;;;15.61;81.42;100477.19;8251599;28;20185;-48
2022/09/17 08:40:21;;;;;;;13.80;1.00;;;;;;;15.47;81.29;100481.47;8247960;28;20898;-47
2022/09/17 08:44:29;;;;;;;6.93;1.10;;;;;;;15.18;81.21;100494.78;8251590;28;20049;-47
2022/09/17 08:48:40;;;;;;;13.38;1.75;;;;;;;15.29;84.11;100494.44;8250050;28;20132;-49
2022/09/17 08:58:00;;;;;;;10.13;1.27;;;;;;;16.54;79.92;100493.59;8371604;27;20518;-47
2022/09/17 09:06:35;;;;;;;8.25;0.93;;;;;;;16.69;77.99;100496.38;8325020;27;20392;-46
2022/09/17 09:10:48;;;;;;;11.10;1.20;;;;;;;16.46;77.00;100492.75;8316199;28;20065;-47
2022/09/17 09:14:57;;;;;;;13.73;1.30;;;;;;;16.24;77.60;100490.78;8316696;28;20533;-47
2022/09/17 09:19:21;;;;;;;4.22;1.13;;;;;;;17.17;77.80;100482.38;8309384;28;20045;-47
2022/09/17 09:23:42;;;;;;;7.93;1.40;;;;;;;18.31;71.02;100487.31;8315162;28;20034;-46
2022/09/17 09:27:55;;;;;;;4.55;0.80;;;;;;;19.69;67.34;100485.00;8314688;28;20079;-50
2022/09/17 09:32:09;;;;;;;6.75;1.10;;;;;;;20.73;61.55;100484.72;8296175;28;20042;-49
2022/09/17 09:36:14;;;;;;;11.05;1.50;;;;;;;21.33;60.51;100487.41;8305335;28;20531;-47
2022/09/17 09:40:36;;;;;;;9.98;0.93;;;;;;;21.37;60.37;100488.66;8312438;28;20112;-46
2022/09/17 09:44:37;;;;;;;8.57;0.90;;;;;;;21.28;58.38;100487.19;8314185;28;20053;-48
2022/09/17 09:49:07;;;;;;;6.05;1.23;;;;;;;22.93;57.43;100487.44;8312185;28;20037;-47
2022/09/17 09:53:30;;;;;;;3.30;0.50;;;;;;;23.36;55.12;100482.13;8315601;28;20475;-49
2022/09/17 09:57:43;;;;;;;7.87;0.77;;;;;;;22.45;57.11;100484.25;8314406;28;20025;-49
2022/09/17 10:01:43;;;;;;;6.68;0.90;;;;;;;20.84;60.67;100475.88;8307439;28;20661;-47
2022/09/17 10:05:58;;;;;;;8.00;0.90;;;;;;;18.93;62.72;100472.06;8306714;28;20411;-48
2022/09/17 10:10:08;;;;;;;;;;;;;;;17.09;68.88;100466.03;8284114;28;20052;-48
2022/09/17 10:14:15;;;;;;;5.32;0.65;;;;;;;16.20;71.83;100473.09;8280113;28;19917;-46
2022/09/17 10:18:21;;;;;;;9.23;0.98;;;;;;;16.27;76.31;100476.81;8248426;28;20689;-49
2022/09/17 10:22:31;;;;;;;9.20;1.13;;;;;;;16.83;74.47;100476.47;8254051;28;20563;-47
2022/09/17 10:26:35;;;;;;;8.63;1.27;;;;;;;18.35;68.30;100466.72;8251291;28;20050;-48
2022/09/17 10:30:35;;;;;;;2.92;0.70;;;;;;;17.38;70.81;100471.56;8258223;28;20400;-46
2022/09/17 10:35:00;;;;;;;6.65;1.10;;;;;;;16.86;73.74;100476.13;8254607;28;20038;-47
2022/09/17 10:39:33;;;;;;;11.82;1.05;;;;;;;18.09;68.68;100481.97;8258583;28;20562;-47
2022/09/17 10:43:34;;;;;;;2.70;0.75;;;;;;;16.88;72.57;100468.59;8254000;28;20041;-51
2022/09/17 10:47:41;;;;;;;8.30;0.88;;;;;;;17.31;72.24;100471.50;8250859;28;20062;-47
2022/09/17 10:51:42;;;;;;;4.05;0.60;;;;;;;21.32;61.46;100469.22;8256574;28;20061;-48
2022/09/17 11:00:14;;;;;;;3.88;0.55;;;;;;;23.65;54.60;100448.28;8299965;28;20405;-46
2022/09/17 11:04:24;;;;;;;5.55;0.68;;;;;;;23.28;53.23;100450.13;8295258;28;20487;-47
2022/09/17 11:08:56;;;;;;;3.65;0.60;;;;;;;23.13;55.80;100450.41;8295996;28;20066;-47
2022/09/17 11:13:24;;;;;;;7.90;0.98;;;;;;;24.65;53.19;100434.88;8282943;28;20042;-47
2022/09/17 11:26:57;;;;;;;4.22;1.17;;;;;;;18.72;62.67;100446.53;8344659;28;20964;-47
2022/09/17 11:31:27;;;;;;;4.55;0.70;;;;;;;17.04;70.22;100442.00;8328972;28;20045;-47
2022/09/17 11:35:34;;;;;;;5.60;1.05;;;;;;;17.92;68.84;100443.00;8343389;28;20033;-46
2022/09/17 11:39:59;;;;;;;10.75;0.93;;;;;;;17.91;66.29;100448.66;8343841;28;20506;-46
2022/09/17 11:48:19;;;;;;;6.85;0.80;;;;;;;16.41;72.01;100443.31;8286138;28;20392;-47
2022/09/17 11:52:25;;;;;;;8.55;0.98;;;;;;;16.69;70.67;100436.31;8313447;28;20037;-49
2022/09/17 11:56:34;;;;;;;5.45;0.73;;;;;;;17.45;65.00;100423.38;8315442;28;20096;-48
2022/09/17 12:00:41;;;;;;;6.35;0.50;;;;;;;17.95;66.54;100426.22;8309169;28;20065;-47
2022/09/17 12:04:55;;;;;;;3.53;1.13;;;;;;;17.52;69.00;100425.19;8316247;28;20053;-47
2022/09/17 12:09:02;;;;;;;5.05;0.60;;;;;;;16.19;77.15;100452.31;8314102;28;20183;-46
2022/09/17 12:13:16;;;;;;;10.90;1.13;;;;;;;14.27;93.93;100459.59;8311803;28;20033;-48
2022/09/17 12:17:24;;;;;;;11.52;2.38;;;;;;;15.42;100.00;100459.38;8309850;28;20408;-49
2022/09/17 12:21:37;;;;;;;6.28;0.82;;;;;;;19.68;76.69;100438.56;8310050;28;20439;-50
2022/09/17 12:25:51;;;;;;;6.20;0.70;;;;;;;21.37;67.88;100432.81;8291162;28;20053;-47
2022/09/17 12:30:12;;;;;;;8.30;0.50;;;;;;;22.00;64.33;100432.09;8293820;28;20050;-46
2022/09/17 12:34:45;;;;;;;7.47;0.43;;;;;;;21.83;62.88;100437.22;8306618;28;20511;-48
2022/09/17 12:39:11;;;;;;;3.93;0.50;;;;;;;20.41;64.99;100425.88;8272526;28;20132;-47
2022/09/17 12:43:38;;;;;;;3.58;0.55;;;;;;;18.69;70.61;100420.38;8271600;28;20038;-46
2022/09/17 12:47:58;;;;;;;3.08;0.32;;;;;;;17.75;74.27;100408.66;8301937;28;20046;-48
2022/09/17 12:52:06;;;;;;;2.78;0.38;;;;;;;17.70;71.13;100402.06;8308770;28;20049;-47
2022/09/17 12:56:24;;;;;;;2.60;0.30;;;;;;;17.88;70.87;100408.88;8307439;28;20113;-46
2022/09/17 13:00:25;;;;;;;3.17;0.40;;;;;;;17.50;71.78;100412.72;8274858;28;20447;-47
2022/09/17 13:04:53;;;;;;;1.85;0.50;;;;;;;17.16;70.96;100409.63;8246418;28;20084;-46
2022/09/17 13:09:18;;;;;;;1.38;0.55;;;;;;;16.86;72.57;100410.56;8253485;28;20460;-47
2022/09/17 13:17:51;;;;;;;3.20;0.73;;;;;;;16.85;73.63;100400.69;8404255;27;21103;-47
2022/09/17 13:21:59;;;;;;;2.38;0.30;;;;;;;16.80;72.78;100400.41;8408118;28;20379;-47
2022/09/17 13:26:04;;;;;;;3.53;0.80;;;;;;;16.92;75.15;100388.00;8405952;28;20036;-47
2022/09/17 13:30:07;;;;;;;6.90;1.00;;;;;;;17.19;75.12;100387.41;8393103;28;20036;-48
2022/09/17 13:34:29;;;;;;;2.22;0.60;;;;;;;16.80;77.07;100381.31;8403195;28;20033;-46
2022/09/17 13:38:40;;;;;;;3.72;0.73;;;;;;;16.73;76.25;100385.78;8410959;28;20036;-49
2022/09/17 13:42:47;;;;;;;3.75;0.95;;;;;;;16.94;75.31;100380.47;8402593;28;20032;-46
2022/09/17 13:46:51;;;;;;;5.32;0.73;;;;;;;16.73;76.63;100388.50;8401736;28;20089;-47
2022/09/17 13:50:52;;;;;;;1.65;0.40;;;;;;;16.57;73.42;100388.66;8379030;28;20036;-46
2022/09/17 13:54:53;;;;;;;2.08;0.40;;;;;;;16.58;72.53;100383.00;8387759;28;20557;-47
2022/09/17 13:58:53;;;;;;;6.95;0.60;;;;;;;16.75;71.56;100391.91;8384238;28;20433;-47
2022/09/17 14:02:53;;;;;;;5.35;0.52;;;;;;;16.91;73.43;100391.78;8398134;28;20051;-47
2022/09/17 14:06:54;;;;;;;3.10;0.82;;;;;;;16.98;72.59;100387.25;8385952;28;20045;-47
2022/09/17 14:10:57;;;;;;;6.75;0.65;;;;;;;16.90;70.90;100380.00;8395659;28;20044;-47
2022/09/17 14:14:58;;;;;;;11.30;2.00;;;;;;;16.74;73.48;100380.13;8399307;28;20047;-47
2022/09/17 14:19:38;;;;;;;7.68;0.75;;;;;;;16.75;71.80;100386.47;8404796;28;20036;-47
2022/09/17 14:23:49;;;;;;;5.70;0.90;;;;;;;16.91;71.30;100381.72;8400370;28;20046;-47
2022/09/17 14:28:02;;;;;;;9.23;2.13;;;;;;;16.99;71.13;100388.97;8379731;28;20029;-48
2022/09/17 14:32:05;;;;;;;5.78;1.00;;;;;;;17.15;71.51;100380.63;8377236;28;20350;-47
2022/09/17 14:36:14;;;;;;;8.10;1.00;;;;;;;17.00;70.96;100391.53;8375810;28;20040;-49
2022/09/17 14:40:17;;;;;;;6.80;1.00;;;;;;;17.11;71.19;100391.06;8372964;28;20528;-48
2022/09/17 14:44:20;;;;;;;7.38;1.38;;;;;;;17.29;71.95;100396.16;8381558;28;20710;-47
2022/09/17 14:48:33;;;;;;;7.80;1.45;;;;;;;17.55;71.75;100407.56;8378247;28;20119;-47
2022/09/17 14:52:34;;;;;;;5.78;1.00;;;;;;;17.23;70.98;100407.88;8382904;28;20390;-46
2022/09/17 14:56:44;;;;;;;7.80;1.15;;;;;;;17.00;70.99;100396.13;8369887;28;20090;-48
2022/09/17 15:00:51;;;;;;;4.75;0.55;;;;;;;17.18;70.86;100391.19;8372597;28;20508;-47
2022/09/17 15:04:52;;;;;;;4.45;0.93;;;;;;;17.18;70.49;100388.44;8371492;28;20032;-46
2022/09/17 15:08:56;;;;;;;11.52;0.90;;;;;;;16.89;71.29;100399.28;8357322;28;20045;-47
2022/09/17 15:12:57;;;;;;;5.03;1.15;;;;;;;17.00;71.72;100396.13;8357626;28;20051;-47
2022/09/17 15:17:00;;;;;;;5.88;0.90;;;;;;;17.30;71.48;100395.16;8357398;28;20217;-47
2022/09/17 15:21:04;;;;;;;4.78;0.85;;;;;;;17.45;68.81;100396.06;8370974;28;20056;-47
2022/09/17 15:25:09;;;;;;;8.05;1.40;;;;;;;17.68;71.14;100409.63;8377242;28;20044;-47
2022/09/17 15:29:12;;;;;;;5.28;0.85;;;;;;;16.97;68.97;100423.81;8368035;28;20158;-46
2022/09/17 15:33:14;;;;;;;4.45;0.70;;;;;;;15.66;72.38;100429.34;8359927;28;20051;-46
2022/09/17 15:37:19;;;;;;;5.63;0.93;;;;;;;15.06;74.79;100428.06;8357830;28;20064;-46
2022/09/17 15:41:28;;;;;;;5.43;0.80;;;;;;;14.89;74.43;100417.34;8367781;28;20033;-48
2022/09/17 15:45:31;;;;;;;7.80;0.95;;;;;;;15.08;73.61;100406.09;8336352;28;20164;-50
2022/09/17 15:49:34;;;;;;;7.65;0.88;;;;;;;15.33;74.76;100408.63;8350196;28;20060;-47
2022/09/17 15:53:35;;;;;;;7.55;0.95;;;;;;;15.42;75.00;100410.34;8350373;28;20417;-49
2022/09/17 15:57:35;;;;;;;6.32;1.42;;;;;;;15.47;74.90;100405.19;8348481;28;20048;-47
2022/09/17 16:05:48;;;;;;;6.55;0.95;;;;;;;15.47;77.48;100424.25;8313207;27;20797;-47
2022/09/17 16:09:51;;;;;;;9.13;1.95;;;;;;;15.55;78.21;100418.81;8311197;28;20064;-46
2022/09/17 16:13:53;;;;;;;12.13;2.80;;;;;;;15.48;79.22;100426.00;8312058;28;20120;-46
2022/09/17 16:17:54;;;;;;;11.10;1.15;;;;;;;15.50;79.57;100426.63;8311781;28;20042;-47
2022/09/17 16:21:55;;;;;;;9.45;1.17;;;;;;;15.49;80.11;100427.69;8312644;28;20042;-48
2022/09/17 16:25:56;;;;;;;12.60;1.17;;;;;;;15.40;79.79;100439.63;8313262;28;20160;-46
2022/09/17 16:30:04;;;;;;;12.13;1.83;;;;;;;15.28;80.20;100438.25;8312404;28;20277;-47
2022/09/17 16:34:04;;;;;;;7.05;1.05;;;;;;;15.21;79.89;100448.13;8311636;28;20088;-47
2022/09/17 16:38:05;;;;;;;8.15;1.58;;;;;;;15.13;79.66;100448.13;8312694;28;20258;-46
2022/09/17 16:42:05;;;;;;;8.35;1.40;;;;;;;15.17;79.64;100451.38;8311094;28;20117;-48
2022/09/17 16:46:09;;;;;;;6.72;1.27;;;;;;;15.16;79.61;100450.50;8311021;28;20038;-47
2022/09/17 16:50:13;;;;;;;8.05;1.83;;;;;;;15.15;79.65;100447.97;8313223;28;20037;-47
2022/09/17 16:54:13;;;;;;;5.82;0.98;;;;;;;15.23;78.55;100450.69;8311964;28;20046;-49
2022/09/17 16:58:14;;;;;;;7.50;1.00;;;;;;;15.25;77.35;100454.09;8311941;28;20496;-47
2022/09/17 17:02:14;;;;;;;9.63;1.15;;;;;;;15.31;75.80;100456.97;8310963;28;20037;-48
2022/09/17 17:06:16;;;;;;;9.77;0.88;;;;;;;15.34;76.42;100464.78;8311259;28;20526;-47
2022/09/17 17:10:17;;;;;;;9.20;1.05;;;;;;;15.36;75.81;100473.66;8311888;28;20025;-47
2022/09/17 17:14:17;;;;;;;9.65;1.20;;;;;;;15.08;80.89;100476.91;8305079;28;20049;-48
2022/09/17 17:18:20;;;;;;;6.07;1.08;;;;;;;14.48;87.44;100481.75;8289968;28;20128;-46
2022/09/17 17:22:20;;;;;;;10.95;1.48;;;;;;;14.13;90.08;100481.97;8289513;28;20034;-47
2022/09/17 17:26:21;;;;;;;14.38;1.52;;;;;;;13.94;92.19;100471.38;8289112;28;20064;-46
2022/09/17 17:30:22;;;;;;;9.05;0.90;;;;;;;13.73;96.61;100474.47;8287972;28;20041;-48
2022/09/17 17:34:22;;;;;;;8.63;1.48;;;;;;;13.73;99.18;100479.91;8289917;28;20112;-48
2022/09/17 17:38:23;;;;;;;12.45;1.33;;;;;;;13.81;96.57;100482.66;8289966;28;20037;-47
2022/09/17 17:42:23;;;;;;;9.63;1.40;;;;;;;13.94;95.23;100503.97;8288239;28;20042;-47
2022/09/17 17:46:23;;;;;;;12.32;1.27;;;;;;;14.00;93.88;100500.59;8289271;28;20458;-47
2022/09/17 17:50:24;;;;;;;13.07;1.60;;;;;;;14.07;90.56;100498.94;8287639;28;20452;-46
2022/09/17 17:54:26;;;;;;;13.95;2.15;;;;;;;14.16;90.09;100497.09;8287911;28;20042;-50
2022/09/17 17:58:27;;;;;;;10.43;1.27;;;;;;;14.22;89.17;100507.31;8286800;28;20038;-46
2022/09/17 18:02:27;;;;;;;10.25;1.85;;;;;;;14.21;87.82;100511.88;8287551;28;20063;-47
2022/09/17 18:06:29;;;;;;;10.50;1.58;;;;;;;14.26;86.35;100509.56;8288014;28;20038;-47
2022/09/17 18:10:29;;;;;;;10.80;1.98;;;;;;;14.31;82.30;100515.38;8285756;28;20057;-46
2022/09/17 18:14:30;;;;;;;13.25;1.40;;;;;;;14.42;79.92;100517.78;8288012;28;20041;-46
2022/09/17 18:18:34;;;;;;;11.40;1.38;;;;;;;14.42;79.08;100515.06;8287537;28;20038;-46
2022/09/17 18:22:34;;;;;;;9.15;1.17;;;;;;;14.37;79.31;100522.03;8285838;28;20129;-46
2022/09/17 18:26:35;;;;;;;12.57;1.88;;;;;;;14.23;79.35;100531.66;8287356;28;20038;-46
2022/09/17 18:30:36;;;;;;;9.13;1.42;;;;;;;14.09;80.21;100534.94;8285698;28;20518;-46
2022/09/17 18:34:36;;;;;;;12.70;1.60;;;;;;;13.94;81.09;100531.16;8282730;28;20042;-49
2022/09/17 18:38:38;;;;;;;9.65;1.90;;;;;;;13.88;81.14;100541.81;8287237;28;20045;-47
2022/09/17 18:42:38;;;;;;;13.15;2.15;;;;;;;13.88;81.47;100537.25;8288068;28;20038;-46
2022/09/17 18:46:56;;;;;;;15.90;1.55;;;;;;;13.88;80.66;100543.50;8286803;28;20506;-48
2022/09/17 18:51:00;;;;;;;8.75;1.67;;;;;;;13.99;79.54;100534.22;8282775;28;20042;-47
2022/09/17 18:55:02;;;;;;;;;;;;;;;14.07;80.00;100542.44;8271456;28;20038;-46
2022/09/17 18:59:02;;;;;;;12.98;1.63;;;;;;;14.06;79.62;100546.16;8286263;28;19947;-48
2022/09/17 19:03:03;;;;;;;14.43;1.50;;;;;;;14.08;78.88;100546.84;8284659;28;20053;-47
2022/09/17 19:07:04;;;;;;;9.00;1.75;;;;;;;14.11;79.37;100543.81;8279115;28;20169;-47
2022/09/17 19:11:05;;;;;;;11.00;2.08;;;;;;;14.09;78.64;100540.38;8286016;28;20563;-47
2022/09/17 19:15:07;;;;;;;14.77;2.00;;;;;;;14.11;78.86;100548.38;8278941;28;20350;-47
2022/09/17 19:19:08;;;;;;;6.95;1.42;;;;;;;14.14;78.17;100543.47;8257408;28;20069;-47
2022/09/17 19:23:09;;;;;;;13.07;1.63;;;;;;;14.10;79.46;100558.44;8278423;28;20153;-47
2022/09/17 19:27:09;;;;;;;8.82;1.33;;;;;;;14.11;79.74;100560.13;8281421;28;20054;-51
2022/09/17 19:31:13;;;;;;;12.73;1.80;;;;;;;14.03;82.87;100573.66;8286290;28;20104;-47
2022/09/17 19:35:14;;;;;;;15.07;2.03;;;;;;;13.81;84.59;100564.19;8285006;28;20460;-47